Heavitree, United Kingdom
Current Conditions -  °F | °C
As of 3:20 AM on Monday 20 Oct 2014 (Local Time) from EGTE Reporting Station
Few Clouds Few Clouds  
Wind Chill: 52°   Ceiling: Unl
Heat Index: 52°   Visibility: 6mi
Dew Point: 50°   Wind: 5mph
Humidity: 94%   Direction: 220°SW
Pressure: 30.06"   Gusts: NA
Location:  50.72°N, 3.5°W
Report Text: EGTE 200220Z 22004KT 9999 FEW020 11/10 Q1018
Loading
Personal Weather Stations






























Interactive Weather Map
Tropical Storm Tracking
New forecast layout! Learn more

10-Day Weather Forecast

Advertisements
Track Severe Weather on mobile